EPKT/KTW METAR and TAF weather

Enter ICAO airport designator
Station Type Date Time Source
EPKT METAR 2021/09/23 23:00 UTC NOAA

EPKT 232300Z 23015KT 9999 -RA SCT048 15/11 Q1006


Station Type Date Time Source
EPKT Decoded METAR 2021/09/23 23:00 UTC NOAA

Katowice, Poland (EPKT) 50-14N 019-02E 284M
Sep 23, 2021 - 07:00 PM EDT / 2021.09.23 2300 UTC
Wind: from the SW (230 degrees) at 17 MPH (15 KT):0
Visibility: greater than 7 mile(s):0
Sky conditions: partly cloudy
Weather: light rain
Temperature: 59 F (15 C)
Dew Point: 51 F (11 C)
Relative Humidity: 76%
Pressure (altimeter): 29.71 in. Hg (1006 hPa)
ob: EPKT 232300Z 23015KT 9999 -RA SCT048 15/11 Q1006
cycle: 23

Station Type Date Time Source
EPKT TAF 2021/09/23 18:37 UTC NOAA

TAF EPKT 231730Z 2318/2418 24013KT CAVOK
BECMG 2319/2322 28015G30KT
TEMPO 2322/2405 30020G40KT 4000 SHRA BKN013 BKN020CB
TEMPO 2405/2415 30020G40KT
BECMG 2415/2418 26012KT

Example: see airport list